Time;durP1;ratioP1;P1;durP2;ratioP2;P2;SDS_P1;SDS_P2;PMS_P1;PMS_P2;Temp;Humidity;BMP_temperature;BMP_pressure;BME280_temperature;BME280_humidity;BME280_pressure;Samples;Min_cycle;Max_cycle;Signal;HPM_P1;HPM_P2
2022/10/13 00:01:57;;;;;;;15.63;5.95;;;;;;;13.49;70.64;100289.69;5105059;28;20414;-41
2022/10/13 00:04:23;;;;;;;14.38;5.72;;;;;;;13.47;70.93;100281.88;5109219;28;20498;-41
2022/10/13 00:06:50;;;;;;;10.70;5.55;;;;;;;13.47;71.12;100291.41;5104698;27;20067;-41
2022/10/13 00:09:16;;;;;;;13.65;5.85;;;;;;;13.46;71.83;100284.50;5102979;28;20554;-41
2022/10/13 00:11:43;;;;;;;10.85;5.47;;;;;;;13.45;71.24;100280.19;5095430;28;20036;-41
2022/10/13 00:14:09;;;;;;;13.07;5.82;;;;;;;13.45;70.84;100293.19;5108738;28;20399;-42
2022/10/13 00:16:36;;;;;;;11.00;5.85;;;;;;;13.45;70.60;100298.38;5103361;28;20182;-42
2022/10/13 00:19:03;;;;;;;14.85;5.53;;;;;;;13.44;71.29;100296.66;5111938;27;20134;-41
2022/10/13 00:21:29;;;;;;;12.00;5.70;;;;;;;13.43;71.45;100297.53;5107472;28;20126;-41
2022/10/13 00:23:56;;;;;;;15.13;6.05;;;;;;;13.41;71.73;100296.69;5095214;28;20131;-41
2022/10/13 00:26:24;;;;;;;13.15;5.90;;;;;;;13.42;71.32;100299.28;5112845;28;20043;-41
2022/10/13 00:28:51;;;;;;;12.23;5.45;;;;;;;13.41;71.67;100296.69;5113963;28;20095;-42
2022/10/13 00:31:23;;;;;;;18.58;5.88;;;;;;;13.42;71.99;100303.63;5112140;28;20047;-41
2022/10/13 00:33:51;;;;;;;17.73;5.57;;;;;;;13.40;71.04;100300.19;5096791;28;20514;-41
2022/10/13 00:36:20;;;;;;;14.93;5.65;;;;;;;13.40;71.60;100301.03;5110669;28;20091;-41
2022/10/13 00:38:46;;;;;;;13.20;6.72;;;;;;;13.39;71.30;100304.53;5088514;28;20123;-41
2022/10/13 00:41:13;;;;;;;15.10;5.38;;;;;;;13.39;71.35;100298.44;5103698;28;20165;-41
2022/10/13 00:46:34;;;;;;;17.40;6.05;;;;;;;13.38;72.14;100302.81;5028722;27;20413;-41
2022/10/13 00:49:08;;;;;;;14.32;5.93;;;;;;;13.37;71.29;100285.44;5010984;28;20140;-42
2022/10/13 00:51:41;;;;;;;12.30;5.53;;;;;;;13.39;71.86;100296.72;5011839;28;20053;-42
2022/10/13 00:54:10;;;;;;;13.30;5.65;;;;;;;13.39;71.84;100288.03;5011695;28;20058;-41
2022/10/13 00:56:38;;;;;;;14.45;5.90;;;;;;;13.39;72.38;100293.25;5013757;28;20458;-41
2022/10/13 00:59:12;;;;;;;12.90;5.40;;;;;;;13.36;72.21;100292.41;5015483;28;20092;-41
2022/10/13 01:01:39;;;;;;;13.43;5.50;;;;;;;13.35;71.36;100282.84;5012266;28;20050;-41
2022/10/13 01:04:05;;;;;;;13.43;5.30;;;;;;;13.36;72.03;100295.00;5011689;28;20049;-41
2022/10/13 01:06:33;;;;;;;19.42;6.82;;;;;;;13.34;72.52;100281.16;5016652;28;20128;-41
2022/10/13 01:08:59;;;;;;;14.00;5.43;;;;;;;13.33;71.43;100284.63;5018353;28;20140;-41
2022/10/13 01:22:17;;;;;;;13.23;5.32;;;;;;;13.19;71.06;100276.97;5059559;27;20414;-39
2022/10/13 01:25:02;;;;;;;15.20;5.93;;;;;;;13.13;70.57;100281.38;5064372;28;20052;-40
2022/10/13 01:30:18;;;;;;;17.20;7.45;;;;;;;13.09;71.12;100265.81;5090319;27;20733;-41
2022/10/13 01:38:32;;;;;;;19.63;8.15;;;;;;;13.43;71.11;100253.28;5027081;28;20409;-41
2022/10/13 01:41:26;;;;;;;13.82;6.28;;;;;;;13.06;71.83;100260.63;5029322;28;20687;-41
2022/10/13 01:46:42;;;;;;;14.30;6.40;;;;;;;12.98;72.06;100254.63;5007134;27;20403;-41
2022/10/13 01:49:13;;;;;;;12.85;5.93;;;;;;;12.95;71.52;100254.66;4984446;28;20074;-42
2022/10/13 01:51:41;;;;;;;16.23;5.93;;;;;;;12.90;72.33;100251.25;4987607;28;20082;-42
2022/10/13 01:54:07;;;;;;;19.05;6.28;;;;;;;12.87;71.17;100253.88;4981965;28;20845;-41
2022/10/13 01:56:34;;;;;;;14.05;6.13;;;;;;;12.82;71.80;100252.19;4980298;28;20452;-41
2022/10/13 01:59:09;;;;;;;13.80;5.57;;;;;;;12.79;71.31;100246.13;4988062;28;20054;-41
2022/10/13 02:07:31;;;;;;;18.42;8.10;;;;;;;12.71;72.06;100243.59;5025807;27;20409;-42
2022/10/13 02:10:37;;;;;;;15.05;8.15;;;;;;;12.66;71.23;100240.19;4990836;28;20154;-41
2022/10/13 02:13:07;;;;;;;17.02;8.43;;;;;;;12.71;71.57;100238.41;4993215;28;20073;-41
2022/10/13 02:15:39;;;;;;;17.35;7.68;;;;;;;12.71;72.53;100238.41;4991563;28;20070;-42
2022/10/13 02:18:08;;;;;;;16.30;8.02;;;;;;;12.71;72.36;100228.00;4991757;28;20054;-41
2022/10/13 02:20:35;;;;;;;17.80;8.43;;;;;;;12.72;72.42;100230.59;4993427;28;20081;-41
2022/10/13 02:23:08;;;;;;;16.75;8.80;;;;;;;12.72;72.16;100227.13;4994921;28;20137;-40
2022/10/13 02:25:35;;;;;;;16.13;8.18;;;;;;;12.73;71.72;100223.66;4992503;28;20065;-41
2022/10/13 02:28:03;;;;;;;16.98;6.55;;;;;;;12.73;72.42;100221.94;4994921;28;20715;-41
2022/10/13 02:30:32;;;;;;;16.23;8.80;;;;;;;12.74;72.45;100222.81;4991505;28;20132;-41
2022/10/13 02:33:01;;;;;;;17.58;8.25;;;;;;;12.73;72.67;100218.44;4996133;28;20093;-41
2022/10/13 02:35:29;;;;;;;14.32;7.60;;;;;;;12.73;72.31;100215.84;4991235;28;20050;-41
2022/10/13 02:37:56;;;;;;;14.02;6.60;;;;;;;12.72;71.70;100216.72;4998540;28;20689;-41
2022/10/13 02:40:23;;;;;;;14.68;7.88;;;;;;;12.71;72.16;100212.41;4993470;28;20070;-41
2022/10/13 02:42:50;;;;;;;16.05;7.93;;;;;;;12.71;72.22;100212.41;4995365;28;20077;-42
2022/10/13 02:45:16;;;;;;;14.68;7.43;;;;;;;12.68;72.23;100213.31;4993212;28;20161;-42
2022/10/13 02:47:43;;;;;;;19.45;8.55;;;;;;;12.69;72.58;100214.16;4994397;28;20048;-41
2022/10/13 02:50:10;;;;;;;15.27;7.63;;;;;;;12.68;71.78;100207.25;4987911;28;20141;-41
2022/10/13 02:52:37;;;;;;;14.57;7.93;;;;;;;12.65;72.27;100212.47;4989510;28;20086;-41
2022/10/13 02:55:04;;;;;;;17.65;9.68;;;;;;;12.64;71.57;100210.75;4991394;28;20133;-42
2022/10/13 02:57:31;;;;;;;21.33;8.18;;;;;;;12.62;72.53;100202.09;4996537;28;20042;-42
2022/10/13 02:59:58;;;;;;;19.67;8.73;;;;;;;12.61;71.84;100206.44;4985773;28;20138;-41
2022/10/13 03:02:26;;;;;;;16.95;8.73;;;;;;;12.63;71.91;100209.03;4990689;28;20137;-41
2022/10/13 03:04:53;;;;;;;16.52;8.27;;;;;;;12.60;72.43;100215.97;4989265;28;20085;-41
2022/10/13 03:07:20;;;;;;;14.60;7.95;;;;;;;12.61;71.67;100216.84;4994372;28;20141;-41
2022/10/13 03:09:46;;;;;;;16.92;8.38;;;;;;;12.63;72.93;100214.22;4994138;28;20515;-41
2022/10/13 03:12:13;;;;;;;15.07;8.70;;;;;;;12.63;73.00;100216.84;4990228;28;20136;-41
2022/10/13 03:14:39;;;;;;;30.02;9.73;;;;;;;12.63;71.98;100219.44;4993447;28;20132;-42
2022/10/13 03:17:06;;;;;;;21.92;9.90;;;;;;;12.63;72.31;100215.06;4991549;28;20133;-41
2022/10/13 03:19:38;;;;;;;31.10;8.93;;;;;;;12.63;72.47;100214.22;4984851;28;20054;-41
2022/10/13 03:22:05;;;;;;;29.25;10.00;;;;;;;12.63;72.23;100222.03;4982536;28;20137;-42
2022/10/13 03:24:31;;;;;;;21.65;9.02;;;;;;;12.62;71.99;100217.69;4986921;28;20129;-41
2022/10/13 03:26:58;;;;;;;24.25;9.07;;;;;;;12.61;71.82;100216.84;4986042;28;20129;-42
2022/10/13 03:29:25;;;;;;;21.45;8.77;;;;;;;12.61;72.41;100216.84;4982394;28;20188;-41
2022/10/13 03:31:51;;;;;;;17.60;9.00;;;;;;;12.60;72.87;100213.38;4984550;28;20100;-41
2022/10/13 03:34:19;;;;;;;19.00;9.18;;;;;;;12.60;72.70;100209.94;4976165;28;20050;-42
2022/10/13 03:36:45;;;;;;;19.48;8.23;;;;;;;12.60;73.27;100210.78;4976564;28;20177;-41
2022/10/13 03:39:12;;;;;;;16.95;8.20;;;;;;;12.62;72.30;100208.16;4977462;28;20052;-41
2022/10/13 03:41:39;;;;;;;18.02;8.57;;;;;;;12.64;73.13;100210.75;4978795;28;20060;-41
2022/10/13 03:44:06;;;;;;;19.45;8.70;;;;;;;12.64;72.67;100208.16;4979847;28;20154;-41
2022/10/13 03:46:33;;;;;;;16.20;8.63;;;;;;;12.65;72.38;100207.28;4976210;28;20129;-41
2022/10/13 03:48:59;;;;;;;19.30;8.43;;;;;;;12.67;73.46;100205.53;4968266;28;20054;-42
2022/10/13 03:51:26;;;;;;;18.25;8.40;;;;;;;12.68;73.27;100207.25;4975731;28;20050;-40
2022/10/13 03:53:53;;;;;;;16.75;8.43;;;;;;;12.68;73.69;100209.84;4975026;28;20129;-40
2022/10/13 03:56:24;;;;;;;18.02;7.82;;;;;;;12.70;73.39;100215.91;4975903;28;20125;-41
2022/10/13 03:58:54;;;;;;;19.08;8.40;;;;;;;12.72;73.15;100219.34;4975943;28;20128;-40
2022/10/13 04:01:22;;;;;;;17.35;9.93;;;;;;;12.72;73.36;100214.13;4978682;28;20082;-41
2022/10/13 04:03:51;;;;;;;17.60;9.35;;;;;;;12.74;73.24;100209.81;4963523;28;20116;-42
2022/10/13 04:06:17;;;;;;;20.77;8.93;;;;;;;12.74;73.03;100207.19;4973007;28;20049;-42
2022/10/13 04:08:44;;;;;;;19.45;9.07;;;;;;;12.74;74.02;100207.19;4979543;28;20129;-40
2022/10/13 04:11:12;;;;;;;20.40;8.52;;;;;;;12.75;72.82;100203.72;4981614;28;21214;-41
2022/10/13 04:13:40;;;;;;;18.38;10.00;;;;;;;12.75;73.47;100198.53;4977719;28;20299;-41
2022/10/13 04:16:12;;;;;;;17.20;8.30;;;;;;;12.76;73.26;100204.59;4976731;28;20049;-42
2022/10/13 04:18:39;;;;;;;18.98;8.43;;;;;;;12.76;73.74;100194.19;4981991;28;20534;-41
2022/10/13 04:21:13;;;;;;;18.63;7.78;;;;;;;12.76;73.92;100197.63;4985742;28;20050;-40
2022/10/13 04:23:40;;;;;;;16.23;7.82;;;;;;;12.77;73.67;100198.50;4979187;28;20707;-40
2022/10/13 04:26:15;;;;;;;13.15;6.10;;;;;;;12.76;72.93;100195.03;4978732;28;20494;-40
2022/10/13 04:28:41;;;;;;;17.50;8.13;;;;;;;12.76;72.48;100192.44;4976801;28;20552;-40
2022/10/13 04:31:08;;;;;;;16.05;8.50;;;;;;;12.75;72.67;100193.31;4976164;28;20165;-42
2022/10/13 04:33:35;;;;;;;15.60;8.13;;;;;;;12.76;73.70;100189.00;4981023;28;20057;-41
2022/10/13 04:36:04;;;;;;;15.98;7.30;;;;;;;12.75;73.69;100197.66;4981011;28;20533;-41
2022/10/13 04:38:31;;;;;;;14.00;7.95;;;;;;;12.73;73.29;100184.66;4980905;28;20141;-40
2022/10/13 04:40:57;;;;;;;15.27;8.10;;;;;;;12.70;73.14;100184.72;4983335;28;20046;-41
2022/10/13 04:43:24;;;;;;;15.95;8.50;;;;;;;12.67;73.58;100180.38;4983328;28;20541;-40
2022/10/13 04:45:50;;;;;;;16.02;5.88;;;;;;;12.66;72.29;100183.03;4974169;28;20749;-41
2022/10/13 04:48:17;;;;;;;17.48;7.75;;;;;;;12.64;72.51;100174.38;4978134;28;20162;-41
2022/10/13 04:50:43;;;;;;;17.10;8.52;;;;;;;12.60;72.08;100173.56;4978724;28;20095;-40
2022/10/13 04:53:10;;;;;;;19.08;7.80;;;;;;;12.55;73.12;100176.19;4976355;28;20054;-41
2022/10/13 04:55:43;;;;;;;16.77;7.55;;;;;;;12.52;73.12;100173.59;4979246;28;20129;-41
2022/10/13 04:58:10;;;;;;;19.17;8.25;;;;;;;12.47;73.00;100172.78;4984559;28;20061;-40
2022/10/13 05:00:36;;;;;;;15.15;8.00;;;;;;;12.43;72.80;100179.72;4980995;28;20042;-42
2022/10/13 05:03:03;;;;;;;18.80;8.38;;;;;;;12.40;72.17;100181.50;4980291;28;20052;-40
2022/10/13 05:05:29;;;;;;;15.00;7.90;;;;;;;12.36;72.24;100180.66;4985367;28;20053;-42
2022/10/13 05:07:56;;;;;;;17.67;8.48;;;;;;;12.34;72.66;100178.06;4979305;28;20058;-41
2022/10/13 05:10:22;;;;;;;16.60;7.75;;;;;;;12.35;72.63;100178.94;4980266;28;20078;-41
2022/10/13 05:12:50;;;;;;;14.43;5.53;;;;;;;12.36;72.46;100174.63;4983769;28;20504;-41
2022/10/13 05:15:17;;;;;;;15.20;7.78;;;;;;;12.33;72.59;100170.31;4979999;28;20085;-41
2022/10/13 05:17:43;;;;;;;18.75;7.70;;;;;;;12.32;72.53;100179.84;4979563;28;20050;-40
2022/10/13 05:20:10;;;;;;;22.00;9.45;;;;;;;12.29;72.15;100179.00;4980805;28;20057;-41
2022/10/13 05:22:37;;;;;;;14.98;7.85;;;;;;;12.24;72.14;100180.75;4979934;28;20056;-42
2022/10/13 05:25:04;;;;;;;25.75;9.52;;;;;;;12.17;71.90;100175.63;4974480;28;20188;-41
2022/10/13 05:27:30;;;;;;;25.00;9.45;;;;;;;12.13;72.45;100173.91;4981055;28;20074;-41
2022/10/13 05:29:57;;;;;;;22.50;9.10;;;;;;;12.10;73.20;100175.66;4980645;28;20073;-41
2022/10/13 05:32:24;;;;;;;81.88;9.15;;;;;;;12.06;72.76;100180.88;4978862;28;20068;-39
2022/10/13 05:34:50;;;;;;;191.52;12.88;;;;;;;12.02;73.32;100175.69;4975964;28;20417;-40
2022/10/13 05:37:17;;;;;;;211.10;11.98;;;;;;;11.98;73.08;100172.25;4962554;28;20075;-39
2022/10/13 05:39:44;;;;;;;118.30;8.10;;;;;;;11.95;73.15;100174.84;4968832;28;20501;-40
2022/10/13 05:42:14;;;;;;;162.85;10.80;;;;;;;11.93;73.44;100179.22;4982303;28;20141;-40
2022/10/13 05:44:41;;;;;;;77.10;8.32;;;;;;;11.91;72.27;100171.44;4980232;28;20129;-39
2022/10/13 05:47:08;;;;;;;50.17;7.28;;;;;;;11.92;72.53;100185.28;4979397;28;20043;-41
2022/10/13 05:49:38;;;;;;;13.50;7.25;;;;;;;11.93;73.15;100187.00;4980539;28;20050;-40
2022/10/13 05:52:09;;;;;;;14.73;7.25;;;;;;;11.95;72.36;100187.84;4975188;28;20042;-41
2022/10/13 05:54:40;;;;;;;16.45;8.60;;;;;;;11.97;72.47;100186.09;4971414;28;20478;-41
2022/10/13 05:57:16;;;;;;;19.63;8.23;;;;;;;11.99;73.03;100191.28;4970635;28;20049;-40
2022/10/13 05:59:51;;;;;;;69.88;7.82;;;;;;;11.99;73.68;100192.13;4969913;28;20066;-40
2022/10/13 06:02:22;;;;;;;40.40;9.10;;;;;;;12.00;73.61;100193.88;4977440;28;20081;-40
2022/10/13 06:04:52;;;;;;;45.90;8.75;;;;;;;11.98;73.52;100193.00;4971447;28;20149;-40
2022/10/13 06:07:19;;;;;;;25.33;8.88;;;;;;;11.96;73.84;100192.19;4972266;28;20152;-40
2022/10/13 06:09:46;;;;;;;18.48;7.65;;;;;;;11.96;72.45;100194.78;4972598;28;20474;-40
2022/10/13 06:12:12;;;;;;;16.38;7.93;;;;;;;11.95;73.50;100196.50;4972921;28;20549;-40
2022/10/13 06:14:39;;;;;;;15.32;6.30;;;;;;;11.96;72.68;100203.41;4974510;28;20482;-41
2022/10/13 06:17:06;;;;;;;16.58;7.25;;;;;;;11.98;73.84;100200.81;4976226;28;20577;-41
2022/10/13 06:19:33;;;;;;;16.42;6.78;;;;;;;11.99;73.01;100207.72;4965376;28;20074;-39
2022/10/13 06:22:00;;;;;;;14.43;7.20;;;;;;;12.01;72.49;100205.09;4971923;28;20046;-40
2022/10/13 06:24:29;;;;;;;12.15;6.55;;;;;;;12.01;72.93;100203.38;4973803;28;20050;-41
2022/10/13 06:26:56;;;;;;;16.30;7.18;;;;;;;12.02;72.83;100199.91;4971858;28;20489;-40
2022/10/13 06:29:22;;;;;;;18.80;7.38;;;;;;;12.03;72.99;100196.44;4976817;28;20153;-39
2022/10/13 06:31:49;;;;;;;13.48;7.43;;;;;;;12.04;72.76;100203.38;4968795;28;20053;-40
2022/10/13 06:34:15;;;;;;;16.15;7.57;;;;;;;12.06;73.07;100196.44;4975777;28;20074;-45
2022/10/13 06:36:42;;;;;;;17.02;6.80;;;;;;;12.06;73.02;100187.81;4972690;28;20046;-40
2022/10/13 06:39:09;;;;;;;18.15;7.88;;;;;;;12.06;74.20;100180.88;4972881;28;20160;-40
2022/10/13 06:41:35;;;;;;;16.58;7.63;;;;;;;12.08;72.98;100178.28;4972836;28;20051;-40
2022/10/13 06:44:02;;;;;;;16.17;8.68;;;;;;;12.10;72.80;100183.47;4978285;28;20101;-41
2022/10/13 06:46:29;;;;;;;15.35;6.60;;;;;;;12.11;72.88;100174.78;4978788;28;20078;-40
2022/10/13 06:48:55;;;;;;;17.05;6.70;;;;;;;12.12;72.93;100171.34;4978280;28;20476;-40
2022/10/13 06:51:22;;;;;;;15.52;7.65;;;;;;;12.11;72.92;100169.59;4974781;28;20058;-40
2022/10/13 06:53:48;;;;;;;14.45;6.85;;;;;;;12.12;73.92;100173.94;4978353;28;20054;-40
2022/10/13 06:56:15;;;;;;;14.82;7.63;;;;;;;12.12;73.93;100166.16;4976486;28;20059;-39
2022/10/13 06:58:41;;;;;;;15.43;7.80;;;;;;;12.12;73.56;100161.78;4979205;28;20046;-40
2022/10/13 07:01:11;;;;;;;16.35;7.18;;;;;;;12.16;73.62;100162.66;4981831;28;20129;-39
2022/10/13 07:03:38;;;;;;;13.68;6.38;;;;;;;12.17;73.17;100166.97;4978428;28;20077;-40
2022/10/13 07:06:06;;;;;;;16.17;7.38;;;;;;;12.19;73.50;100168.66;4977643;28;20081;-40
2022/10/13 07:08:33;;;;;;;14.02;6.30;;;;;;;12.20;73.41;100169.53;4974366;28;20046;-40
2022/10/13 07:11:11;;;;;;;14.82;7.07;;;;;;;12.21;73.03;100171.25;4978500;28;20109;-40
2022/10/13 07:13:42;;;;;;;17.13;6.50;;;;;;;12.23;73.10;100179.91;4978107;28;20137;-40
2022/10/13 07:16:13;;;;;;;15.00;7.35;;;;;;;12.25;72.76;100175.56;4978424;28;20082;-41
2022/10/13 07:18:40;;;;;;;19.00;7.95;;;;;;;12.27;73.98;100181.63;4977272;28;20081;-40
2022/10/13 07:21:06;;;;;;;15.32;7.80;;;;;;;12.28;73.33;100188.53;4973678;28;20082;-41
2022/10/13 07:23:33;;;;;;;13.10;4.80;;;;;;;12.29;74.02;100179.84;4980481;28;20534;-40
2022/10/13 07:26:00;;;;;;;12.77;6.55;;;;;;;12.31;72.92;100190.22;4978569;28;20050;-41
2022/10/13 07:28:27;;;;;;;13.18;6.70;;;;;;;12.32;73.44;100190.22;4974901;28;20078;-40
2022/10/13 07:30:54;;;;;;;11.75;7.18;;;;;;;12.32;73.99;100190.22;4974732;28;20053;-41
2022/10/13 07:33:21;;;;;;;14.00;7.35;;;;;;;12.33;72.54;100186.75;4978212;28;20141;-40
2022/10/13 07:35:48;;;;;;;14.30;7.20;;;;;;;12.35;73.73;100194.53;4981727;28;20054;-41
2022/10/13 07:38:14;;;;;;;14.40;6.68;;;;;;;12.37;72.80;100197.13;4978416;28;20084;-41
2022/10/13 07:40:41;;;;;;;13.02;7.13;;;;;;;12.38;73.84;100198.81;4982422;28;20066;-40
2022/10/13 07:43:07;;;;;;;16.63;8.05;;;;;;;12.39;73.78;100190.19;4982812;28;20137;-40
2022/10/13 07:45:34;;;;;;;13.93;6.43;;;;;;;12.40;73.40;100194.50;4982601;28;20066;-40
2022/10/13 07:48:01;;;;;;;13.68;6.60;;;;;;;12.40;73.68;100192.75;4981372;28;20046;-42
2022/10/13 07:50:28;;;;;;;13.07;8.23;;;;;;;12.42;73.95;100205.72;4984896;28;20085;-41
2022/10/13 07:52:55;;;;;;;15.80;8.07;;;;;;;12.41;74.05;100204.88;4986836;28;20050;-41
2022/10/13 07:55:21;;;;;;;12.93;6.97;;;;;;;12.42;74.04;100197.94;4982306;28;20129;-39
2022/10/13 07:57:48;;;;;;;15.02;6.63;;;;;;;12.42;72.79;100197.94;4982087;28;20129;-41
2022/10/13 08:00:15;;;;;;;14.32;7.18;;;;;;;12.42;72.80;100203.13;4980294;28;20070;-41
2022/10/13 08:02:42;;;;;;;14.07;7.13;;;;;;;12.41;73.87;100199.69;4978646;28;20061;-40
2022/10/13 08:05:08;;;;;;;13.50;7.60;;;;;;;12.41;74.19;100210.06;4974714;28;20137;-40
2022/10/13 08:07:38;;;;;;;13.93;5.72;;;;;;;12.41;73.97;100217.00;4985119;28;20758;-41
2022/10/13 08:10:05;;;;;;;15.25;7.60;;;;;;;12.42;73.13;100205.72;4983609;28;20050;-40
2022/10/13 08:12:34;;;;;;;14.80;7.25;;;;;;;12.41;74.42;100204.00;4978546;28;20050;-40
2022/10/13 08:15:01;;;;;;;16.30;7.05;;;;;;;12.40;73.43;100212.69;4980141;28;20078;-42
2022/10/13 08:17:32;;;;;;;13.45;6.80;;;;;;;12.37;74.61;100208.38;4986673;28;20101;-41
2022/10/13 08:19:58;;;;;;;17.33;7.47;;;;;;;12.37;73.97;100210.09;4983246;28;20078;-41
2022/10/13 08:22:26;;;;;;;19.08;8.07;;;;;;;12.37;73.87;100202.31;4981141;28;20116;-41
2022/10/13 08:24:54;;;;;;;16.35;7.53;;;;;;;12.39;74.38;100205.78;4981621;28;20050;-40
2022/10/13 08:27:23;;;;;;;15.65;7.72;;;;;;;12.42;74.14;100205.72;4980989;28;20499;-42
2022/10/13 08:30:10;;;;;;;16.88;6.65;;;;;;;12.47;74.76;100198.78;4965463;28;20065;-41
2022/10/13 08:32:37;;;;;;;16.25;6.18;;;;;;;12.52;73.68;100194.38;4978395;28;20058;-41
2022/10/13 08:35:04;;;;;;;13.68;6.57;;;;;;;12.60;74.08;100197.78;4974605;28;20054;-41
2022/10/13 08:37:30;;;;;;;17.70;7.70;;;;;;;12.65;73.73;100191.69;4983381;28;20047;-40
2022/10/13 08:39:57;;;;;;;13.95;6.63;;;;;;;12.69;73.73;100188.16;4977233;28;20057;-41
2022/10/13 08:42:24;;;;;;;11.65;7.32;;;;;;;12.74;73.79;100186.41;4979938;28;20126;-44
2022/10/13 08:44:56;;;;;;;14.70;7.72;;;;;;;12.82;74.57;100188.91;4980602;28;20245;-43
2022/10/13 08:50:25;;;;;;;12.07;4.10;;;;;;;12.95;72.99;100184.47;4997720;28;20406;-44
2022/10/13 08:53:03;;;;;;;13.85;4.20;;;;;;;12.97;73.21;100190.53;4985550;28;20469;-43
2022/10/13 08:55:38;;;;;;;12.18;3.80;;;;;;;13.02;72.82;100191.31;4985336;28;20137;-43
2022/10/13 08:58:13;;;;;;;12.40;3.85;;;;;;;13.03;72.83;100182.63;4998282;28;20050;-42
2022/10/13 09:00:40;;;;;;;10.75;3.50;;;;;;;13.04;73.81;100194.75;4985741;28;20050;-40
2022/10/13 09:03:21;;;;;;;12.65;4.07;;;;;;;13.00;73.34;100197.44;4992423;28;20129;-42
2022/10/13 09:08:53;;;;;;;11.80;3.83;;;;;;;13.04;72.49;100189.56;5025669;28;20406;-41
2022/10/13 09:11:20;;;;;;;12.40;3.75;;;;;;;13.11;72.57;100186.00;5012398;28;20075;-43
2022/10/13 09:13:46;;;;;;;10.32;3.67;;;;;;;13.21;72.28;100193.72;5007931;28;20128;-41
2022/10/13 09:16:14;;;;;;;10.60;3.67;;;;;;;13.28;72.07;100203.19;5003321;28;20076;-41
2022/10/13 09:18:40;;;;;;;10.05;3.85;;;;;;;13.32;72.19;100199.69;5006608;28;20121;-42
2022/10/13 09:21:10;;;;;;;11.55;3.42;;;;;;;13.35;71.70;100196.16;5018339;28;20096;-42
2022/10/13 09:23:36;;;;;;;11.52;4.45;;;;;;;13.39;72.03;100194.38;5005443;28;20410;-42
2022/10/13 09:26:14;;;;;;;14.98;4.20;;;;;;;13.42;71.87;100195.22;5010870;28;20077;-41
2022/10/13 09:28:41;;;;;;;10.25;3.50;;;;;;;13.44;71.25;100188.25;5008007;28;20678;-42
2022/10/13 09:31:23;;;;;;;12.30;4.60;;;;;;;13.47;70.79;100198.63;5014372;28;20148;-41
2022/10/13 09:33:58;;;;;;;7.50;3.35;;;;;;;13.50;71.33;100187.34;5010547;28;20080;-41
2022/10/13 09:36:25;;;;;;;9.10;3.28;;;;;;;13.57;71.38;100199.38;5002953;28;20597;-42
2022/10/13 09:39:12;;;;;;;12.27;3.63;;;;;;;13.67;71.21;100202.72;5015160;28;20153;-41
2022/10/13 09:41:41;;;;;;;13.52;3.85;;;;;;;13.84;70.80;100212.94;5019281;28;20447;-42
2022/10/13 09:44:15;;;;;;;10.02;3.10;;;;;;;13.96;71.16;100213.63;5002484;28;20066;-41
2022/10/13 09:46:54;;;;;;;10.27;3.10;;;;;;;14.07;70.55;100218.69;5010046;28;20050;-41
2022/10/13 09:52:01;;;;;;;8.80;2.67;;;;;;;14.17;69.50;100219.41;5038615;27;20414;-42
2022/10/13 09:57:40;;;;;;;10.45;3.40;;;;;;;14.23;69.19;100219.31;5046388;27;20937;-43
2022/10/13 10:00:20;;;;;;;8.07;3.33;;;;;;;14.26;68.95;100229.72;5008614;28;20144;-42
2022/10/13 10:05:56;;;;;;;14.68;5.85;;;;;;;14.29;67.90;100240.09;5084142;27;20405;-42
2022/10/13 10:14:31;;;;;;;10.25;2.67;;;;;;;14.73;68.26;100224.59;5012620;27;20418;-42
2022/10/13 10:17:29;;;;;;;7.95;2.88;;;;;;;14.95;67.40;100229.47;5003926;28;20129;-43
2022/10/13 10:23:12;;;;;;;8.60;4.75;;;;;;;15.06;66.31;100221.44;5012651;28;20934;-43
2022/10/13 10:25:45;;;;;;;8.88;4.82;;;;;;;15.18;66.37;100224.72;4985123;28;20046;-42
2022/10/13 10:28:52;;;;;;;14.18;4.35;;;;;;;15.40;66.32;100223.41;5001673;28;20136;-42
2022/10/13 10:39:53;;;;;;;7.95;2.85;;;;;;;15.91;64.72;100225.84;5099314;27;20400;-43
2022/10/13 10:45:00;;;;;;;10.70;4.05;;;;;;;16.15;64.81;100219.22;5068451;28;20734;-42
2022/10/13 10:47:35;;;;;;;5.47;3.13;;;;;;;16.26;63.35;100210.28;5024945;28;20049;-42
2022/10/13 10:50:05;;;;;;;11.77;3.60;;;;;;;16.28;63.52;100213.72;5031468;28;20423;-43
2022/10/13 10:55:28;;;;;;;9.63;3.40;;;;;;;16.34;63.46;100213.56;5077412;27;20403;-42
2022/10/13 11:00:54;;;;;;;6.22;2.42;;;;;;;16.51;62.51;100214.94;5045467;27;20391;-42
2022/10/13 11:08:46;;;;;;;6.43;2.95;;;;;;;16.72;61.42;100208.25;5076626;27;20402;-42
2022/10/13 11:11:30;;;;;;;8.80;3.22;;;;;;;16.79;62.08;100209.00;4995993;28;20666;-42
2022/10/13 11:19:38;;;;;;;9.15;2.20;;;;;;;16.89;60.50;100192.13;5067669;27;20443;-43
2022/10/13 11:27:25;;;;;;;8.07;2.55;;;;;;;16.87;60.53;100196.56;5030749;28;21164;-42
2022/10/13 11:29:56;;;;;;;6.28;2.30;;;;;;;16.88;60.81;100206.13;4988386;28;20086;-42
2022/10/13 11:40:33;;;;;;;10.95;2.60;;;;;;;16.39;60.82;100198.66;5045377;27;21170;-42
2022/10/13 11:51:52;;;;;;;7.63;3.20;;;;;;;16.41;59.87;100178.53;5033323;27;20391;-42
2022/10/13 11:54:40;;;;;;;9.43;3.00;;;;;;;16.26;60.64;100187.63;5012787;28;20138;-42
2022/10/13 11:57:19;;;;;;;7.05;4.03;;;;;;;16.33;61.11;100180.50;5012121;28;20459;-43
2022/10/13 11:59:48;;;;;;;10.00;4.32;;;;;;;16.33;60.62;100170.03;5011900;28;20144;-42
2022/10/13 12:02:16;;;;;;;5.15;3.30;;;;;;;16.34;60.34;100163.91;5014493;28;20065;-42
2022/10/13 12:07:39;;;;;;;8.85;2.40;;;;;;;16.21;60.00;100154.66;5019763;27;20402;-42
2022/10/13 12:10:16;;;;;;;7.20;2.03;;;;;;;16.14;60.42;100151.34;5012914;28;20560;-41
2022/10/13 12:12:48;;;;;;;6.95;1.80;;;;;;;16.13;60.51;100157.44;5011723;28;20133;-42
2022/10/13 12:18:28;;;;;;;9.00;1.55;;;;;;;15.91;60.16;100148.34;5041665;28;20415;-42
2022/10/13 12:20:58;;;;;;;10.93;2.35;;;;;;;15.95;60.18;100143.94;4994090;28;20034;-42
2022/10/13 12:23:25;;;;;;;4.50;1.50;;;;;;;15.93;60.40;100145.69;4992616;28;20073;-42
2022/10/13 12:25:57;;;;;;;4.95;1.45;;;;;;;15.90;60.25;100146.63;4989804;28;20062;-43
2022/10/13 12:28:26;;;;;;;5.15;1.50;;;;;;;15.95;60.26;100136.13;4993732;28;20120;-41
2022/10/13 12:30:57;;;;;;;4.88;1.20;;;;;;;15.90;60.10;100128.34;5008333;28;20046;-41
2022/10/13 12:36:16;;;;;;;5.32;2.70;;;;;;;16.05;60.59;100134.13;5028947;28;20401;-43
2022/10/13 12:38:48;;;;;;;7.95;2.95;;;;;;;16.16;60.26;100132.13;4973350;28;20487;-42
2022/10/13 12:41:18;;;;;;;5.25;1.85;;;;;;;16.26;60.42;100137.09;4999335;28;20053;-43
2022/10/13 12:43:45;;;;;;;11.70;2.35;;;;;;;16.33;60.60;100149.13;4975290;28;20043;-42
2022/10/13 12:46:12;;;;;;;10.40;1.77;;;;;;;16.37;60.29;100140.31;4972068;28;20053;-41
2022/10/13 12:48:39;;;;;;;8.80;2.63;;;;;;;16.39;60.65;100138.53;4973129;28;20046;-41
2022/10/13 12:53:51;;;;;;;7.60;2.47;;;;;;;16.56;60.51;100137.22;5038988;28;20394;-42
2022/10/13 12:56:26;;;;;;;6.72;2.75;;;;;;;16.69;60.94;100135.97;5017956;28;20048;-42
2022/10/13 12:58:53;;;;;;;6.35;2.72;;;;;;;16.85;60.34;100139.97;5021667;28;20145;-43
2022/10/13 13:01:29;;;;;;;6.13;2.67;;;;;;;16.96;60.13;100138.75;5009750;28;20069;-42
2022/10/13 13:04:00;;;;;;;8.98;3.10;;;;;;;17.04;60.21;100129.81;5006931;28;20172;-42
2022/10/13 13:06:32;;;;;;;6.00;2.88;;;;;;;17.07;59.90;100128.03;5017858;28;20041;-45
2022/10/13 13:09:17;;;;;;;7.15;3.15;;;;;;;17.09;59.88;100130.56;5013749;28;20103;-41
2022/10/13 13:11:44;;;;;;;9.00;3.35;;;;;;;17.09;59.37;100118.34;5020485;28;20096;-40
2022/10/13 13:14:34;;;;;;;7.32;1.50;;;;;;;16.99;59.08;100111.63;5005281;28;21639;-41
2022/10/13 13:19:48;;;;;;;6.68;2.10;;;;;;;17.21;59.35;100111.06;5018521;27;20409;-43
2022/10/13 13:22:15;;;;;;;5.82;1.55;;;;;;;17.32;58.56;100097.63;4975499;28;20570;-45
2022/10/13 13:24:42;;;;;;;5.03;1.40;;;;;;;17.42;58.89;100095.59;4972445;28;22314;-42
2022/10/13 13:27:26;;;;;;;7.30;1.83;;;;;;;17.39;58.90;100083.47;4980457;28;20060;-42
2022/10/13 13:29:54;;;;;;;5.75;2.63;;;;;;;17.34;57.73;100080.13;4996049;28;20533;-42